sensor_id;sensor_type;location;lat;lon;timestamp;P1;durP1;ratioP1;P2;durP2;ratioP2
69678;SDS011;56915;52.046;4.854;2022-08-18T00:02:04;15.45;;;9.70;;
69678;SDS011;56915;52.046;4.854;2022-08-18T00:04:43;13.95;;;9.18;;
69678;SDS011;56915;52.046;4.854;2022-08-18T00:07:16;13.60;;;9.00;;
69678;SDS011;56915;52.046;4.854;2022-08-18T00:09:55;14.52;;;8.65;;
69678;SDS011;56915;52.046;4.854;2022-08-18T00:12:25;16.37;;;8.60;;
69678;SDS011;56915;52.046;4.854;2022-08-18T00:14:53;14.60;;;8.45;;
69678;SDS011;56915;52.046;4.854;2022-08-18T00:17:20;12.05;;;8.13;;
69678;SDS011;56915;52.046;4.854;2022-08-18T00:19:48;14.48;;;7.93;;
69678;SDS011;56915;52.046;4.854;2022-08-18T00:22:16;14.20;;;7.93;;
69678;SDS011;56915;52.046;4.854;2022-08-18T00:24:46;13.33;;;8.43;;
69678;SDS011;56915;52.046;4.854;2022-08-18T00:27:19;11.73;;;7.95;;
69678;SDS011;56915;52.046;4.854;2022-08-18T00:29:53;12.65;;;7.82;;
69678;SDS011;56915;52.046;4.854;2022-08-18T00:32:26;12.93;;;8.00;;
69678;SDS011;56915;52.046;4.854;2022-08-18T00:35:05;12.75;;;8.05;;
69678;SDS011;56915;52.046;4.854;2022-08-18T00:37:55;12.70;;;8.13;;
69678;SDS011;56915;52.046;4.854;2022-08-18T00:40:29;13.23;;;8.25;;
69678;SDS011;56915;52.046;4.854;2022-08-18T00:43:03;16.60;;;9.05;;
69678;SDS011;56915;52.046;4.854;2022-08-18T00:45:36;13.77;;;9.10;;
69678;SDS011;56915;52.046;4.854;2022-08-18T00:48:06;15.50;;;9.35;;
69678;SDS011;56915;52.046;4.854;2022-08-18T00:50:44;14.43;;;8.83;;
69678;SDS011;56915;52.046;4.854;2022-08-18T00:53:24;14.15;;;8.52;;
69678;SDS011;56915;52.046;4.854;2022-08-18T00:55:59;13.95;;;8.90;;
69678;SDS011;56915;52.046;4.854;2022-08-18T00:58:33;16.85;;;9.57;;
69678;SDS011;56915;52.046;4.854;2022-08-18T01:01:09;15.50;;;9.18;;
69678;SDS011;56915;52.046;4.854;2022-08-18T01:03:39;14.00;;;8.97;;
69678;SDS011;56915;52.046;4.854;2022-08-18T01:06:16;15.85;;;9.30;;
69678;SDS011;56915;52.046;4.854;2022-08-18T01:09:00;15.25;;;9.18;;
69678;SDS011;56915;52.046;4.854;2022-08-18T01:11:28;14.73;;;8.98;;
69678;SDS011;56915;52.046;4.854;2022-08-18T01:13:56;17.83;;;9.48;;
69678;SDS011;56915;52.046;4.854;2022-08-18T01:20:12;15.23;;;9.40;;
69678;SDS011;56915;52.046;4.854;2022-08-18T01:23:12;16.55;;;9.00;;
69678;SDS011;56915;52.046;4.854;2022-08-18T01:25:42;15.32;;;8.98;;
69678;SDS011;56915;52.046;4.854;2022-08-18T01:28:35;18.38;;;9.68;;
69678;SDS011;56915;52.046;4.854;2022-08-18T01:31:03;14.23;;;9.20;;
69678;SDS011;56915;52.046;4.854;2022-08-18T01:33:32;15.85;;;9.23;;
69678;SDS011;56915;52.046;4.854;2022-08-18T01:36:15;16.58;;;9.45;;
69678;SDS011;56915;52.046;4.854;2022-08-18T01:38:48;15.63;;;9.85;;
69678;SDS011;56915;52.046;4.854;2022-08-18T01:41:18;15.70;;;9.77;;
69678;SDS011;56915;52.046;4.854;2022-08-18T01:43:57;14.87;;;9.43;;
69678;SDS011;56915;52.046;4.854;2022-08-18T01:46:26;14.90;;;9.35;;
69678;SDS011;56915;52.046;4.854;2022-08-18T01:48:57;16.73;;;9.60;;
69678;SDS011;56915;52.046;4.854;2022-08-18T01:51:30;16.42;;;9.50;;
69678;SDS011;56915;52.046;4.854;2022-08-18T01:54:06;15.88;;;9.38;;
69678;SDS011;56915;52.046;4.854;2022-08-18T01:56:36;15.83;;;8.83;;
69678;SDS011;56915;52.046;4.854;2022-08-18T01:59:03;19.10;;;9.50;;
69678;SDS011;56915;52.046;4.854;2022-08-18T02:01:31;17.23;;;9.57;;
69678;SDS011;56915;52.046;4.854;2022-08-18T02:04:14;17.23;;;9.50;;
69678;SDS011;56915;52.046;4.854;2022-08-18T02:07:00;18.30;;;10.77;;
69678;SDS011;56915;52.046;4.854;2022-08-18T02:09:29;19.33;;;11.90;;
69678;SDS011;56915;52.046;4.854;2022-08-18T02:11:56;19.00;;;11.20;;
69678;SDS011;56915;52.046;4.854;2022-08-18T02:14:23;17.83;;;10.98;;
69678;SDS011;56915;52.046;4.854;2022-08-18T02:16:54;16.08;;;10.48;;
69678;SDS011;56915;52.046;4.854;2022-08-18T02:19:31;17.30;;;10.27;;
69678;SDS011;56915;52.046;4.854;2022-08-18T02:22:00;17.17;;;10.30;;
69678;SDS011;56915;52.046;4.854;2022-08-18T02:24:27;18.33;;;9.82;;
69678;SDS011;56915;52.046;4.854;2022-08-18T02:26:54;15.27;;;9.55;;
69678;SDS011;56915;52.046;4.854;2022-08-18T02:29:20;16.85;;;9.90;;
69678;SDS011;56915;52.046;4.854;2022-08-18T02:31:49;18.60;;;10.00;;
69678;SDS011;56915;52.046;4.854;2022-08-18T02:34:16;19.23;;;9.07;;
69678;SDS011;56915;52.046;4.854;2022-08-18T02:36:43;14.40;;;7.72;;
69678;SDS011;56915;52.046;4.854;2022-08-18T02:39:10;14.10;;;8.25;;
69678;SDS011;56915;52.046;4.854;2022-08-18T02:41:37;14.20;;;8.50;;
69678;SDS011;56915;52.046;4.854;2022-08-18T02:44:05;15.75;;;8.55;;
69678;SDS011;56915;52.046;4.854;2022-08-18T02:46:32;13.60;;;8.43;;
69678;SDS011;56915;52.046;4.854;2022-08-18T02:49:00;15.45;;;9.02;;
69678;SDS011;56915;52.046;4.854;2022-08-18T02:51:27;16.88;;;9.82;;
69678;SDS011;56915;52.046;4.854;2022-08-18T02:53:54;17.10;;;9.70;;
69678;SDS011;56915;52.046;4.854;2022-08-18T02:56:24;18.55;;;11.00;;
69678;SDS011;56915;52.046;4.854;2022-08-18T02:59:08;17.90;;;10.63;;
69678;SDS011;56915;52.046;4.854;2022-08-18T03:01:38;19.50;;;11.20;;
69678;SDS011;56915;52.046;4.854;2022-08-18T03:04:07;18.75;;;11.57;;
69678;SDS011;56915;52.046;4.854;2022-08-18T03:06:37;19.35;;;10.77;;
69678;SDS011;56915;52.046;4.854;2022-08-18T03:09:05;19.10;;;10.68;;
69678;SDS011;56915;52.046;4.854;2022-08-18T03:11:33;20.10;;;10.97;;
69678;SDS011;56915;52.046;4.854;2022-08-18T03:14:01;21.25;;;11.48;;
69678;SDS011;56915;52.046;4.854;2022-08-18T03:16:30;20.98;;;11.27;;
69678;SDS011;56915;52.046;4.854;2022-08-18T03:18:59;21.42;;;11.63;;
69678;SDS011;56915;52.046;4.854;2022-08-18T03:21:27;21.92;;;11.43;;
69678;SDS011;56915;52.046;4.854;2022-08-18T03:23:56;21.47;;;11.37;;
69678;SDS011;56915;52.046;4.854;2022-08-18T03:26:27;19.88;;;11.43;;
69678;SDS011;56915;52.046;4.854;2022-08-18T03:28:56;19.75;;;11.93;;
69678;SDS011;56915;52.046;4.854;2022-08-18T03:31:26;22.23;;;11.73;;
69678;SDS011;56915;52.046;4.854;2022-08-18T03:37:10;19.70;;;11.03;;
69678;SDS011;56915;52.046;4.854;2022-08-18T03:39:36;18.90;;;10.85;;
69678;SDS011;56915;52.046;4.854;2022-08-18T03:42:03;19.08;;;11.50;;
69678;SDS011;56915;52.046;4.854;2022-08-18T03:44:31;22.08;;;11.68;;
69678;SDS011;56915;52.046;4.854;2022-08-18T03:47:03;20.02;;;11.65;;
69678;SDS011;56915;52.046;4.854;2022-08-18T03:49:35;20.93;;;11.40;;
69678;SDS011;56915;52.046;4.854;2022-08-18T03:52:02;22.85;;;11.38;;
69678;SDS011;56915;52.046;4.854;2022-08-18T03:54:30;24.17;;;11.60;;
69678;SDS011;56915;52.046;4.854;2022-08-18T03:56:58;18.92;;;11.35;;
69678;SDS011;56915;52.046;4.854;2022-08-18T03:59:25;20.23;;;10.88;;
69678;SDS011;56915;52.046;4.854;2022-08-18T04:01:53;22.20;;;11.33;;
69678;SDS011;56915;52.046;4.854;2022-08-18T04:04:22;18.67;;;11.25;;
69678;SDS011;56915;52.046;4.854;2022-08-18T04:06:51;22.55;;;11.93;;
69678;SDS011;56915;52.046;4.854;2022-08-18T04:09:24;22.13;;;11.98;;
69678;SDS011;56915;52.046;4.854;2022-08-18T04:11:53;23.15;;;11.73;;
69678;SDS011;56915;52.046;4.854;2022-08-18T04:14:21;20.53;;;11.70;;
69678;SDS011;56915;52.046;4.854;2022-08-18T04:16:50;24.95;;;12.32;;
69678;SDS011;56915;52.046;4.854;2022-08-18T04:19:17;22.63;;;12.30;;
69678;SDS011;56915;52.046;4.854;2022-08-18T04:21:52;26.35;;;13.35;;
69678;SDS011;56915;52.046;4.854;2022-08-18T04:24:22;25.02;;;12.45;;
69678;SDS011;56915;52.046;4.854;2022-08-18T04:26:51;21.90;;;12.83;;
69678;SDS011;56915;52.046;4.854;2022-08-18T04:29:18;22.88;;;12.55;;
69678;SDS011;56915;52.046;4.854;2022-08-18T04:31:47;22.95;;;12.30;;
69678;SDS011;56915;52.046;4.854;2022-08-18T04:34:16;21.40;;;11.93;;
69678;SDS011;56915;52.046;4.854;2022-08-18T04:36:45;23.05;;;12.00;;
69678;SDS011;56915;52.046;4.854;2022-08-18T04:39:12;22.13;;;12.63;;
69678;SDS011;56915;52.046;4.854;2022-08-18T04:41:40;23.83;;;13.07;;
69678;SDS011;56915;52.046;4.854;2022-08-18T04:44:09;25.73;;;12.93;;
69678;SDS011;56915;52.046;4.854;2022-08-18T04:46:37;23.42;;;13.57;;
69678;SDS011;56915;52.046;4.854;2022-08-18T04:49:09;22.90;;;13.25;;
69678;SDS011;56915;52.046;4.854;2022-08-18T04:51:39;25.23;;;13.17;;
69678;SDS011;56915;52.046;4.854;2022-08-18T04:54:28;27.27;;;13.85;;
69678;SDS011;56915;52.046;4.854;2022-08-18T04:56:55;27.40;;;12.75;;
69678;SDS011;56915;52.046;4.854;2022-08-18T04:59:21;25.08;;;13.07;;
69678;SDS011;56915;52.046;4.854;2022-08-18T05:01:48;24.95;;;13.18;;
69678;SDS011;56915;52.046;4.854;2022-08-18T05:04:16;21.83;;;12.60;;
69678;SDS011;56915;52.046;4.854;2022-08-18T05:06:43;23.10;;;12.85;;
69678;SDS011;56915;52.046;4.854;2022-08-18T05:09:11;23.15;;;13.15;;
69678;SDS011;56915;52.046;4.854;2022-08-18T05:11:42;21.20;;;12.40;;
69678;SDS011;56915;52.046;4.854;2022-08-18T05:14:10;21.58;;;12.82;;
69678;SDS011;56915;52.046;4.854;2022-08-18T05:19:25;23.75;;;12.88;;
69678;SDS011;56915;52.046;4.854;2022-08-18T05:21:53;23.92;;;12.90;;
69678;SDS011;56915;52.046;4.854;2022-08-18T05:24:26;24.98;;;12.98;;
69678;SDS011;56915;52.046;4.854;2022-08-18T05:27:02;24.35;;;13.02;;
69678;SDS011;56915;52.046;4.854;2022-08-18T05:29:32;23.97;;;13.00;;
69678;SDS011;56915;52.046;4.854;2022-08-18T05:32:11;21.17;;;12.45;;
69678;SDS011;56915;52.046;4.854;2022-08-18T05:35:03;26.35;;;13.32;;
69678;SDS011;56915;52.046;4.854;2022-08-18T05:37:49;26.55;;;12.73;;
69678;SDS011;56915;52.046;4.854;2022-08-18T05:40:31;24.00;;;12.88;;
69678;SDS011;56915;52.046;4.854;2022-08-18T05:43:01;19.37;;;12.07;;
69678;SDS011;56915;52.046;4.854;2022-08-18T05:45:29;22.92;;;12.88;;
69678;SDS011;56915;52.046;4.854;2022-08-18T05:47:57;20.10;;;11.70;;
69678;SDS011;56915;52.046;4.854;2022-08-18T05:50:27;20.27;;;11.20;;
69678;SDS011;56915;52.046;4.854;2022-08-18T05:52:58;18.23;;;10.48;;
69678;SDS011;56915;52.046;4.854;2022-08-18T05:55:41;15.83;;;9.80;;
69678;SDS011;56915;52.046;4.854;2022-08-18T05:58:40;15.23;;;9.80;;
69678;SDS011;56915;52.046;4.854;2022-08-18T06:01:12;17.05;;;9.68;;
69678;SDS011;56915;52.046;4.854;2022-08-18T06:04:46;12.90;;;8.90;;
69678;SDS011;56915;52.046;4.854;2022-08-18T06:06:47;16.45;;;9.05;;
69678;SDS011;56915;52.046;4.854;2022-08-18T06:09:18;13.67;;;9.17;;
69678;SDS011;56915;52.046;4.854;2022-08-18T06:11:49;14.40;;;8.70;;
69678;SDS011;56915;52.046;4.854;2022-08-18T06:14:36;20.05;;;9.07;;
69678;SDS011;56915;52.046;4.854;2022-08-18T06:20:45;15.05;;;8.13;;
69678;SDS011;56915;52.046;4.854;2022-08-18T06:23:50;12.90;;;8.23;;
69678;SDS011;56915;52.046;4.854;2022-08-18T06:35:53;13.05;;;8.70;;
69678;SDS011;56915;52.046;4.854;2022-08-18T06:47:15;13.95;;;8.25;;
69678;SDS011;56915;52.046;4.854;2022-08-18T06:52:38;12.90;;;8.73;;
69678;SDS011;56915;52.046;4.854;2022-08-18T06:55:18;13.48;;;8.15;;
69678;SDS011;56915;52.046;4.854;2022-08-18T06:58:03;14.55;;;8.35;;
69678;SDS011;56915;52.046;4.854;2022-08-18T07:00:33;10.55;;;7.00;;
69678;SDS011;56915;52.046;4.854;2022-08-18T07:03:13;11.48;;;7.30;;
69678;SDS011;56915;52.046;4.854;2022-08-18T07:05:59;10.03;;;6.50;;
69678;SDS011;56915;52.046;4.854;2022-08-18T07:08:30;9.55;;;6.60;;
69678;SDS011;56915;52.046;4.854;2022-08-18T07:13:50;9.77;;;6.75;;
69678;SDS011;56915;52.046;4.854;2022-08-18T07:16:39;9.73;;;6.20;;
69678;SDS011;56915;52.046;4.854;2022-08-18T07:19:26;8.37;;;4.90;;
69678;SDS011;56915;52.046;4.854;2022-08-18T07:22:07;7.47;;;5.80;;
69678;SDS011;56915;52.046;4.854;2022-08-18T07:24:47;6.93;;;5.10;;
69678;SDS011;56915;52.046;4.854;2022-08-18T07:27:21;7.05;;;5.22;;
69678;SDS011;56915;52.046;4.854;2022-08-18T07:35:16;4.78;;;4.18;;
69678;SDS011;56915;52.046;4.854;2022-08-18T07:40:55;5.20;;;3.47;;
69678;SDS011;56915;52.046;4.854;2022-08-18T07:43:36;4.15;;;3.47;;
69678;SDS011;56915;52.046;4.854;2022-08-18T07:46:12;5.17;;;3.33;;
69678;SDS011;56915;52.046;4.854;2022-08-18T07:48:45;4.15;;;3.15;;
69678;SDS011;56915;52.046;4.854;2022-08-18T07:51:21;5.07;;;3.28;;
69678;SDS011;56915;52.046;4.854;2022-08-18T08:00:13;5.57;;;3.40;;
69678;SDS011;56915;52.046;4.854;2022-08-18T08:06:12;4.43;;;3.15;;
69678;SDS011;56915;52.046;4.854;2022-08-18T08:11:55;5.50;;;3.30;;
69678;SDS011;56915;52.046;4.854;2022-08-18T08:14:40;4.70;;;3.33;;
69678;SDS011;56915;52.046;4.854;2022-08-18T08:20:13;3.25;;;2.95;;
69678;SDS011;56915;52.046;4.854;2022-08-18T08:28:38;7.27;;;5.97;;
69678;SDS011;56915;52.046;4.854;2022-08-18T08:35:12;8.60;;;7.05;;
69678;SDS011;56915;52.046;4.854;2022-08-18T08:38:00;8.48;;;6.55;;
69678;SDS011;56915;52.046;4.854;2022-08-18T08:43:41;9.20;;;6.70;;
69678;SDS011;56915;52.046;4.854;2022-08-18T08:48:57;9.10;;;7.07;;
69678;SDS011;56915;52.046;4.854;2022-08-18T08:54:09;9.90;;;8.10;;
69678;SDS011;56915;52.046;4.854;2022-08-18T08:56:46;9.60;;;7.80;;
69678;SDS011;56915;52.046;4.854;2022-08-18T08:59:16;10.05;;;7.95;;
69678;SDS011;56915;52.046;4.854;2022-08-18T09:05:19;9.50;;;7.60;;
69678;SDS011;56915;52.046;4.854;2022-08-18T09:13:59;6.72;;;4.82;;
69678;SDS011;56915;52.046;4.854;2022-08-18T09:22:20;6.50;;;4.30;;
69678;SDS011;56915;52.046;4.854;2022-08-18T09:25:10;5.83;;;4.20;;
69678;SDS011;56915;52.046;4.854;2022-08-18T09:28:13;5.50;;;3.42;;
69678;SDS011;56915;52.046;4.854;2022-08-18T09:42:26;3.22;;;2.85;;
69678;SDS011;56915;52.046;4.854;2022-08-18T09:50:51;4.88;;;3.10;;
69678;SDS011;56915;52.046;4.854;2022-08-18T10:14:04;6.07;;;4.95;;
69678;SDS011;56915;52.046;4.854;2022-08-18T10:19:51;5.65;;;4.80;;
69678;SDS011;56915;52.046;4.854;2022-08-18T10:22:35;6.83;;;5.40;;
69678;SDS011;56915;52.046;4.854;2022-08-18T10:25:09;6.53;;;5.35;;
69678;SDS011;56915;52.046;4.854;2022-08-18T10:27:53;6.95;;;6.18;;
69678;SDS011;56915;52.046;4.854;2022-08-18T10:54:32;6.50;;;5.90;;
69678;SDS011;56915;52.046;4.854;2022-08-18T11:00:04;6.40;;;5.75;;
69678;SDS011;56915;52.046;4.854;2022-08-18T11:06:02;6.60;;;5.80;;
69678;SDS011;56915;52.046;4.854;2022-08-18T11:08:47;7.40;;;6.13;;
69678;SDS011;56915;52.046;4.854;2022-08-18T11:11:23;6.65;;;5.93;;
69678;SDS011;56915;52.046;4.854;2022-08-18T11:16:54;5.88;;;5.30;;
69678;SDS011;56915;52.046;4.854;2022-08-18T11:19:38;6.50;;;5.40;;
69678;SDS011;56915;52.046;4.854;2022-08-18T11:22:25;6.80;;;5.10;;
69678;SDS011;56915;52.046;4.854;2022-08-18T11:24:58;6.20;;;4.85;;
69678;SDS011;56915;52.046;4.854;2022-08-18T11:27:29;5.68;;;4.80;;
69678;SDS011;56915;52.046;4.854;2022-08-18T11:30:05;5.53;;;4.50;;
69678;SDS011;56915;52.046;4.854;2022-08-18T11:32:38;6.10;;;4.77;;
69678;SDS011;56915;52.046;4.854;2022-08-18T11:35:18;4.20;;;3.80;;
69678;SDS011;56915;52.046;4.854;2022-08-18T11:37:59;4.20;;;3.80;;
69678;SDS011;56915;52.046;4.854;2022-08-18T11:43:29;3.75;;;3.42;;
69678;SDS011;56915;52.046;4.854;2022-08-18T11:48:55;5.10;;;4.60;;
69678;SDS011;56915;52.046;4.854;2022-08-18T11:57:51;4.95;;;4.45;;
69678;SDS011;56915;52.046;4.854;2022-08-18T12:03:11;4.95;;;4.15;;
69678;SDS011;56915;52.046;4.854;2022-08-18T12:05:50;5.53;;;4.45;;
69678;SDS011;56915;52.046;4.854;2022-08-18T12:11:32;5.10;;;3.70;;
69678;SDS011;56915;52.046;4.854;2022-08-18T12:14:08;5.13;;;3.97;;
69678;SDS011;56915;52.046;4.854;2022-08-18T12:16:56;4.30;;;3.90;;
69678;SDS011;56915;52.046;4.854;2022-08-18T12:19:26;5.30;;;4.32;;
69678;SDS011;56915;52.046;4.854;2022-08-18T12:21:57;4.97;;;4.47;;
69678;SDS011;56915;52.046;4.854;2022-08-18T12:24:36;5.60;;;4.10;;
69678;SDS011;56915;52.046;4.854;2022-08-18T12:27:05;4.87;;;3.83;;
69678;SDS011;56915;52.046;4.854;2022-08-18T12:29:47;5.07;;;4.30;;
69678;SDS011;56915;52.046;4.854;2022-08-18T12:32:15;4.90;;;3.95;;
69678;SDS011;56915;52.046;4.854;2022-08-18T12:35:03;4.53;;;3.50;;
69678;SDS011;56915;52.046;4.854;2022-08-18T12:37:34;4.35;;;3.83;;
69678;SDS011;56915;52.046;4.854;2022-08-18T12:40:23;3.90;;;3.50;;
69678;SDS011;56915;52.046;4.854;2022-08-18T12:42:51;4.13;;;3.72;;
69678;SDS011;56915;52.046;4.854;2022-08-18T12:45:21;4.10;;;3.55;;
69678;SDS011;56915;52.046;4.854;2022-08-18T12:47:50;3.50;;;3.20;;
69678;SDS011;56915;52.046;4.854;2022-08-18T12:50:18;3.90;;;3.50;;
69678;SDS011;56915;52.046;4.854;2022-08-18T12:52:56;4.10;;;3.43;;
69678;SDS011;56915;52.046;4.854;2022-08-18T12:55:23;4.38;;;3.67;;
69678;SDS011;56915;52.046;4.854;2022-08-18T12:58:00;4.38;;;3.47;;
69678;SDS011;56915;52.046;4.854;2022-08-18T13:00:27;3.38;;;3.03;;
69678;SDS011;56915;52.046;4.854;2022-08-18T13:03:13;3.60;;;2.85;;
69678;SDS011;56915;52.046;4.854;2022-08-18T13:05:40;4.17;;;3.10;;
69678;SDS011;56915;52.046;4.854;2022-08-18T13:08:08;3.95;;;3.10;;
69678;SDS011;56915;52.046;4.854;2022-08-18T13:10:58;3.20;;;2.90;;
69678;SDS011;56915;52.046;4.854;2022-08-18T13:13:46;4.18;;;3.05;;
69678;SDS011;56915;52.046;4.854;2022-08-18T13:16:18;3.97;;;3.10;;
69678;SDS011;56915;52.046;4.854;2022-08-18T13:19:04;3.50;;;2.90;;
69678;SDS011;56915;52.046;4.854;2022-08-18T13:21:36;3.47;;;3.08;;
69678;SDS011;56915;52.046;4.854;2022-08-18T13:24:06;3.17;;;2.88;;
69678;SDS011;56915;52.046;4.854;2022-08-18T13:26:38;5.80;;;3.15;;
69678;SDS011;56915;52.046;4.854;2022-08-18T13:29:10;4.07;;;3.17;;
69678;SDS011;56915;52.046;4.854;2022-08-18T13:31:39;3.50;;;3.17;;
69678;SDS011;56915;52.046;4.854;2022-08-18T13:34:14;3.78;;;2.75;;
69678;SDS011;56915;52.046;4.854;2022-08-18T13:36:45;3.83;;;3.40;;
69678;SDS011;56915;52.046;4.854;2022-08-18T13:39:14;3.53;;;3.13;;
69678;SDS011;56915;52.046;4.854;2022-08-18T13:41:48;3.80;;;3.50;;
69678;SDS011;56915;52.046;4.854;2022-08-18T13:44:18;3.17;;;2.80;;
69678;SDS011;56915;52.046;4.854;2022-08-18T13:46:52;3.30;;;3.03;;
69678;SDS011;56915;52.046;4.854;2022-08-18T13:49:21;3.13;;;2.85;;
69678;SDS011;56915;52.046;4.854;2022-08-18T13:51:55;3.20;;;2.90;;
69678;SDS011;56915;52.046;4.854;2022-08-18T13:54:27;2.95;;;2.75;;
69678;SDS011;56915;52.046;4.854;2022-08-18T13:57:00;3.20;;;2.90;;
69678;SDS011;56915;52.046;4.854;2022-08-18T13:59:28;3.17;;;2.88;;
69678;SDS011;56915;52.046;4.854;2022-08-18T14:02:02;2.80;;;2.60;;
69678;SDS011;56915;52.046;4.854;2022-08-18T14:04:33;3.00;;;2.70;;
69678;SDS011;56915;52.046;4.854;2022-08-18T14:07:01;2.78;;;2.40;;
69678;SDS011;56915;52.046;4.854;2022-08-18T14:09:35;2.83;;;2.43;;
69678;SDS011;56915;52.046;4.854;2022-08-18T14:12:04;2.70;;;2.50;;
69678;SDS011;56915;52.046;4.854;2022-08-18T14:14:48;2.90;;;2.70;;
69678;SDS011;56915;52.046;4.854;2022-08-18T14:17:17;2.60;;;2.40;;
69678;SDS011;56915;52.046;4.854;2022-08-18T14:19:47;2.85;;;2.63;;
69678;SDS011;56915;52.046;4.854;2022-08-18T14:22:35;4.23;;;2.50;;
69678;SDS011;56915;52.046;4.854;2022-08-18T14:25:21;2.95;;;2.65;;
69678;SDS011;56915;52.046;4.854;2022-08-18T14:28:06;5.63;;;2.95;;
69678;SDS011;56915;52.046;4.854;2022-08-18T14:30:37;4.05;;;2.20;;
69678;SDS011;56915;52.046;4.854;2022-08-18T14:33:09;3.25;;;2.53;;
69678;SDS011;56915;52.046;4.854;2022-08-18T14:38:36;2.90;;;2.60;;
69678;SDS011;56915;52.046;4.854;2022-08-18T14:41:05;2.65;;;2.28;;
69678;SDS011;56915;52.046;4.854;2022-08-18T14:43:34;2.60;;;2.17;;
69678;SDS011;56915;52.046;4.854;2022-08-18T14:46:21;3.33;;;2.22;;
69678;SDS011;56915;52.046;4.854;2022-08-18T14:48:55;2.27;;;2.00;;
69678;SDS011;56915;52.046;4.854;2022-08-18T14:51:33;2.63;;;2.42;;
69678;SDS011;56915;52.046;4.854;2022-08-18T14:54:04;2.72;;;2.53;;
69678;SDS011;56915;52.046;4.854;2022-08-18T14:56:33;3.05;;;2.33;;
69678;SDS011;56915;52.046;4.854;2022-08-18T14:59:04;2.65;;;2.45;;
69678;SDS011;56915;52.046;4.854;2022-08-18T15:01:33;2.67;;;2.30;;
69678;SDS011;56915;52.046;4.854;2022-08-18T15:04:08;2.50;;;2.22;;
69678;SDS011;56915;52.046;4.854;2022-08-18T15:06:44;2.88;;;2.60;;
69678;SDS011;56915;52.046;4.854;2022-08-18T15:09:21;2.63;;;2.42;;
69678;SDS011;56915;52.046;4.854;2022-08-18T15:11:49;2.83;;;2.35;;
69678;SDS011;56915;52.046;4.854;2022-08-18T15:14:19;2.40;;;2.20;;
69678;SDS011;56915;52.046;4.854;2022-08-18T15:16:58;3.03;;;2.28;;
69678;SDS011;56915;52.046;4.854;2022-08-18T15:19:25;2.53;;;2.33;;
69678;SDS011;56915;52.046;4.854;2022-08-18T15:22:12;2.75;;;2.55;;
69678;SDS011;56915;52.046;4.854;2022-08-18T15:25:05;2.97;;;2.67;;
69678;SDS011;56915;52.046;4.854;2022-08-18T15:27:53;2.50;;;2.30;;
69678;SDS011;56915;52.046;4.854;2022-08-18T15:30:20;2.78;;;2.55;;
69678;SDS011;56915;52.046;4.854;2022-08-18T15:32:47;2.80;;;2.60;;
69678;SDS011;56915;52.046;4.854;2022-08-18T15:35:15;2.60;;;2.40;;
69678;SDS011;56915;52.046;4.854;2022-08-18T15:37:45;4.15;;;2.58;;
69678;SDS011;56915;52.046;4.854;2022-08-18T15:40:26;2.30;;;2.00;;
69678;SDS011;56915;52.046;4.854;2022-08-18T15:43:00;2.28;;;2.05;;
69678;SDS011;56915;52.046;4.854;2022-08-18T15:45:36;2.17;;;2.00;;
69678;SDS011;56915;52.046;4.854;2022-08-18T15:48:24;1.95;;;1.83;;
69678;SDS011;56915;52.046;4.854;2022-08-18T15:50:52;2.30;;;2.10;;
69678;SDS011;56915;52.046;4.854;2022-08-18T15:53:20;2.40;;;2.20;;
69678;SDS011;56915;52.046;4.854;2022-08-18T15:55:55;2.25;;;2.03;;
69678;SDS011;56915;52.046;4.854;2022-08-18T15:58:22;3.47;;;1.75;;
69678;SDS011;56915;52.046;4.854;2022-08-18T16:00:54;2.33;;;2.13;;
69678;SDS011;56915;52.046;4.854;2022-08-18T16:03:24;2.47;;;2.28;;
69678;SDS011;56915;52.046;4.854;2022-08-18T16:05:51;2.97;;;2.23;;
69678;SDS011;56915;52.046;4.854;2022-08-18T16:08:23;2.83;;;2.28;;
69678;SDS011;56915;52.046;4.854;2022-08-18T16:10:58;2.60;;;2.40;;
69678;SDS011;56915;52.046;4.854;2022-08-18T16:13:32;4.15;;;2.58;;
69678;SDS011;56915;52.046;4.854;2022-08-18T16:16:07;3.72;;;2.70;;
69678;SDS011;56915;52.046;4.854;2022-08-18T16:18:38;2.90;;;2.70;;
69678;SDS011;56915;52.046;4.854;2022-08-18T16:21:06;4.25;;;3.45;;
69678;SDS011;56915;52.046;4.854;2022-08-18T16:23:37;3.47;;;3.17;;
69678;SDS011;56915;52.046;4.854;2022-08-18T16:26:05;4.32;;;3.28;;
69678;SDS011;56915;52.046;4.854;2022-08-18T16:28:33;3.33;;;2.85;;
69678;SDS011;56915;52.046;4.854;2022-08-18T16:31:00;3.53;;;2.70;;
69678;SDS011;56915;52.046;4.854;2022-08-18T16:33:27;3.20;;;2.90;;
69678;SDS011;56915;52.046;4.854;2022-08-18T16:36:00;3.45;;;2.90;;
69678;SDS011;56915;52.046;4.854;2022-08-18T16:38:29;3.47;;;3.17;;
69678;SDS011;56915;52.046;4.854;2022-08-18T16:40:55;2.95;;;2.70;;
69678;SDS011;56915;52.046;4.854;2022-08-18T16:43:22;3.43;;;2.77;;
69678;SDS011;56915;52.046;4.854;2022-08-18T16:45:52;3.95;;;2.45;;
69678;SDS011;56915;52.046;4.854;2022-08-18T16:48:20;4.60;;;2.80;;
69678;SDS011;56915;52.046;4.854;2022-08-18T16:50:48;4.38;;;2.95;;
69678;SDS011;56915;52.046;4.854;2022-08-18T16:53:16;4.07;;;2.88;;
69678;SDS011;56915;52.046;4.854;2022-08-18T16:55:43;3.50;;;2.50;;
69678;SDS011;56915;52.046;4.854;2022-08-18T16:58:10;4.10;;;2.67;;
69678;SDS011;56915;52.046;4.854;2022-08-18T17:00:56;3.10;;;2.67;;
69678;SDS011;56915;52.046;4.854;2022-08-18T17:03:44;2.90;;;2.70;;
69678;SDS011;56915;52.046;4.854;2022-08-18T17:06:39;3.47;;;2.78;;
69678;SDS011;56915;52.046;4.854;2022-08-18T17:09:13;3.83;;;2.90;;
69678;SDS011;56915;52.046;4.854;2022-08-18T17:14:21;2.92;;;2.65;;
69678;SDS011;56915;52.046;4.854;2022-08-18T17:16:50;2.90;;;2.42;;
69678;SDS011;56915;52.046;4.854;2022-08-18T17:19:24;2.88;;;2.60;;
69678;SDS011;56915;52.046;4.854;2022-08-18T17:22:01;3.13;;;2.27;;
69678;SDS011;56915;52.046;4.854;2022-08-18T17:24:30;3.53;;;2.58;;
69678;SDS011;56915;52.046;4.854;2022-08-18T17:27:07;2.97;;;2.30;;
69678;SDS011;56915;52.046;4.854;2022-08-18T17:32:54;3.50;;;2.92;;
69678;SDS011;56915;52.046;4.854;2022-08-18T17:35:40;3.60;;;2.67;;
69678;SDS011;56915;52.046;4.854;2022-08-18T17:40:54;3.60;;;3.15;;
69678;SDS011;56915;52.046;4.854;2022-08-18T17:43:23;3.40;;;3.10;;
69678;SDS011;56915;52.046;4.854;2022-08-18T17:45:53;3.53;;;3.20;;
69678;SDS011;56915;52.046;4.854;2022-08-18T17:48:26;3.80;;;2.97;;
69678;SDS011;56915;52.046;4.854;2022-08-18T17:51:01;3.28;;;2.55;;
69678;SDS011;56915;52.046;4.854;2022-08-18T17:53:53;4.85;;;3.15;;
69678;SDS011;56915;52.046;4.854;2022-08-18T17:56:46;4.05;;;3.20;;
69678;SDS011;56915;52.046;4.854;2022-08-18T17:59:20;3.20;;;2.90;;
69678;SDS011;56915;52.046;4.854;2022-08-18T18:02:21;3.27;;;2.97;;
69678;SDS011;56915;52.046;4.854;2022-08-18T18:04:55;3.30;;;2.75;;
69678;SDS011;56915;52.046;4.854;2022-08-18T18:10:07;3.50;;;3.20;;
69678;SDS011;56915;52.046;4.854;2022-08-18T18:12:39;3.92;;;2.78;;
69678;SDS011;56915;52.046;4.854;2022-08-18T18:15:08;3.30;;;3.00;;
69678;SDS011;56915;52.046;4.854;2022-08-18T18:17:40;3.45;;;2.95;;
69678;SDS011;56915;52.046;4.854;2022-08-18T18:20:41;4.22;;;3.00;;
69678;SDS011;56915;52.046;4.854;2022-08-18T18:26:20;5.13;;;3.33;;
69678;SDS011;56915;52.046;4.854;2022-08-18T18:31:57;5.90;;;3.00;;
69678;SDS011;56915;52.046;4.854;2022-08-18T18:36:56;5.57;;;3.20;;
69678;SDS011;56915;52.046;4.854;2022-08-18T18:39:30;4.97;;;3.35;;
69678;SDS011;56915;52.046;4.854;2022-08-18T18:42:14;3.40;;;3.10;;
69678;SDS011;56915;52.046;4.854;2022-08-18T18:44:48;3.70;;;3.15;;
69678;SDS011;56915;52.046;4.854;2022-08-18T18:50:04;3.95;;;2.70;;
69678;SDS011;56915;52.046;4.854;2022-08-18T18:55:18;3.30;;;2.50;;